createdAt,value
2023-05-03T00:02:49.173Z,19.9
2023-05-03T00:08:42.929Z,19.8
2023-05-03T00:14:34.638Z,19.8
2023-05-03T00:20:37.798Z,19.8
2023-05-03T00:26:28.477Z,19.8
2023-05-03T00:32:19.992Z,19.9
2023-05-03T00:37:58.386Z,19.8
2023-05-03T00:43:49.354Z,19.8
2023-05-03T00:49:50.534Z,19.8
2023-05-03T00:55:41.212Z,19.8
2023-05-03T01:01:21.922Z,19.8
2023-05-03T01:07:14.961Z,19.8
2023-05-03T01:13:06.556Z,19.8
2023-05-03T01:18:58.329Z,19.8
2023-05-03T01:24:51.298Z,19.8
2023-05-03T01:30:42.090Z,19.8
2023-05-03T01:36:33.633Z,19.8
2023-05-03T01:42:09.951Z,19.8
2023-05-03T01:48:00.903Z,19.8
2023-05-03T01:53:51.994Z,19.8
2023-05-03T01:59:43.739Z,19.8
2023-05-03T02:05:35.817Z,19.8
2023-05-03T02:11:27.191Z,19.8
2023-05-03T02:17:18.831Z,19.8
2023-05-03T02:23:09.996Z,19.8
2023-05-03T02:29:01.878Z,19.8
2023-05-03T02:34:53.989Z,19.8
2023-05-03T02:40:29.830Z,19.7
2023-05-03T02:46:05.583Z,19.7
2023-05-03T02:51:42.535Z,19.8
2023-05-03T02:57:18.075Z,19.8
2023-05-03T03:03:09.840Z,19.7
2023-05-03T03:09:03.303Z,19.8
2023-05-03T03:14:54.911Z,19.7
2023-05-03T03:20:47.155Z,19.7
2023-05-03T03:26:38.728Z,19.7
2023-05-03T03:32:30.200Z,19.7
2023-05-03T03:37:54.098Z,19.7
2023-05-03T03:43:46.317Z,19.7
2023-05-03T03:49:37.712Z,19.7
2023-05-03T03:55:29.570Z,19.7
2023-05-03T04:01:21.077Z,19.7
2023-05-03T04:07:16.322Z,19.7
2023-05-03T04:13:08.403Z,19.7
2023-05-03T04:19:00.448Z,19.7
2023-05-03T04:24:51.581Z,19.7
2023-05-03T04:30:58.367Z,19.7
2023-05-03T04:36:50.757Z,19.6
2023-05-03T04:42:41.580Z,19.6
2023-05-03T04:48:33.173Z,19.6
2023-05-03T04:54:24.836Z,19.6
2023-05-03T05:00:15.349Z,19.6
2023-05-03T05:05:53.321Z,19.6
2023-05-03T05:10:58.895Z,19.6
2023-05-03T05:16:19.177Z,19.6
2023-05-03T05:21:41.998Z,19.6
2023-05-03T05:27:02.990Z,19.6
2023-05-03T05:32:39.579Z,19.6
2023-05-03T05:38:19.072Z,19.5
2023-05-03T05:43:55.977Z,19.6
2023-05-03T05:49:34.733Z,19.6
2023-05-03T05:55:19.801Z,19.6
2023-05-03T06:00:58.325Z,19.6
2023-05-03T06:06:35.054Z,19.6
2023-05-03T06:12:24.443Z,19.6
2023-05-03T06:18:13.662Z,19.6
2023-05-03T06:23:49.624Z,19.6
2023-05-03T06:29:12.425Z,19.6
2023-05-03T06:34:49.144Z,19.6
2023-05-03T06:40:25.401Z,19.6
2023-05-03T06:46:00.584Z,19.5
2023-05-03T06:51:41.072Z,19.6
2023-05-03T06:57:17.389Z,19.6
2023-05-03T07:03:09.847Z,19.6
2023-05-03T07:09:04.358Z,19.6
2023-05-03T07:14:52.020Z,19.6
2023-05-03T07:20:45.637Z,19.6
2023-05-03T07:26:22.049Z,19.6
2023-05-03T07:31:43.169Z,19.6
2023-05-03T07:37:04.272Z,19.5
2023-05-03T07:42:41.788Z,19.5
2023-05-03T07:48:18.094Z,19.5
2023-05-03T07:53:53.944Z,19.6
2023-05-03T07:59:57.553Z,19.5
2023-05-03T08:05:39.060Z,19.5
2023-05-03T08:11:15.331Z,19.5
2023-05-03T08:16:51.681Z,19.5
2023-05-03T08:22:27.591Z,19.5
2023-05-03T08:28:03.132Z,19.5
2023-05-03T08:33:42.194Z,19.5
2023-05-03T08:39:18.188Z,19.5
2023-05-03T08:44:54.899Z,19.5
2023-05-03T08:50:32.608Z,19.5
2023-05-03T08:56:09.195Z,19.5
2023-05-03T09:01:45.701Z,19.5
2023-05-03T09:07:08.860Z,19.4
2023-05-03T09:12:47.712Z,19.5
2023-05-03T09:18:24.156Z,19.5
2023-05-03T09:24:01.666Z,19.5
2023-05-03T09:29:38.085Z,19.4
2023-05-03T09:35:14.196Z,19.1
2023-05-03T09:40:50.686Z,19.1
2023-05-03T09:46:27.657Z,19.2
2023-05-03T09:52:04.086Z,19.3
2023-05-03T09:57:27.223Z,19.3
2023-05-03T10:03:04.557Z,19.3
2023-05-03T10:08:26.246Z,19.3
2023-05-03T10:14:02.801Z,19.3
2023-05-03T10:19:55.188Z,19.3
2023-05-03T10:25:32.783Z,19.3
2023-05-03T10:31:11.489Z,19.3
2023-05-03T10:37:04.915Z,19.3
2023-05-03T10:42:43.122Z,19.3
2023-05-03T10:48:20.643Z,19.3
2023-05-03T10:54:12.287Z,19.4
2023-05-03T10:59:50.936Z,19.4
2023-05-03T11:05:28.640Z,19.4
2023-05-03T11:11:23.740Z,19.4
2023-05-03T11:17:16.441Z,19.4
2023-05-03T11:23:10.600Z,19.4
2023-05-03T11:29:03.582Z,19.4
2023-05-03T11:34:54.861Z,19.4
2023-05-03T11:40:46.549Z,19.4
2023-05-03T11:46:52.223Z,19.4
2023-05-03T11:52:45.163Z,19.4
2023-05-03T11:58:52.805Z,19.4
2023-05-03T12:04:51.271Z,19.4
2023-05-03T12:11:02.064Z,19.4
2023-05-03T12:17:36.951Z,19.4
2023-05-03T12:25:27.534Z,19.4
2023-05-03T12:32:07.013Z,19.4
2023-05-03T12:38:43.247Z,19.4
2023-05-03T12:45:15.891Z,19.4
2023-05-03T13:08:02.825Z,19.4
2023-05-03T13:14:33.250Z,19.4
2023-05-03T13:20:14.082Z,19.4
2023-05-03T13:27:20.635Z,19.4
2023-05-03T13:32:58.603Z,19.4
2023-05-03T13:38:34.542Z,19.4
2023-05-03T13:44:11.277Z,19.4
2023-05-03T13:50:17.614Z,19.4
2023-05-03T13:56:10.490Z,19.4
2023-05-03T14:01:48.001Z,19.4
2023-05-03T14:07:45.302Z,19.4
2023-05-03T14:13:22.380Z,19.4
2023-05-03T14:19:29.543Z,19.4
2023-05-03T14:25:08.053Z,19.4
2023-05-03T14:30:45.629Z,19.4
2023-05-03T14:36:24.074Z,19.4
2023-05-03T14:42:18.790Z,19.4
2023-05-03T14:47:57.789Z,19.4
2023-05-03T14:53:39.410Z,19.4
2023-05-03T14:59:17.504Z,19.4
2023-05-03T15:04:40.590Z,19.4
2023-05-03T15:10:36.565Z,19.4
2023-05-03T15:16:31.836Z,19.4
2023-05-03T15:22:25.332Z,19.4
2023-05-03T15:28:21.174Z,19.4
2023-05-03T15:34:18.477Z,19.4
2023-05-03T15:40:12.114Z,19.4
2023-05-03T15:46:06.038Z,19.4
2023-05-03T15:52:04.697Z,19.4
2023-05-03T15:57:42.916Z,19.4
2023-05-03T16:03:39.425Z,19.4
2023-05-03T16:09:34.564Z,19.4
2023-05-03T16:15:28.229Z,19.4
2023-05-03T16:21:24.592Z,19.3
2023-05-03T16:27:22.673Z,19.4
2023-05-03T16:33:19.181Z,19.3
2023-05-03T16:39:14.229Z,19.3
2023-05-03T16:45:11.904Z,19.3
2023-05-03T16:51:10.371Z,19.3
2023-05-03T16:57:07.705Z,19.3
2023-05-03T17:03:07.670Z,19.3
2023-05-03T17:09:07.668Z,19.3
2023-05-03T17:15:07.459Z,19.3
2023-05-03T17:21:07.728Z,19.3
2023-05-03T17:27:03.802Z,19.3
2023-05-03T17:33:01.490Z,19.3
2023-05-03T17:38:59.012Z,19.3
2023-05-03T17:44:58.066Z,19.3
2023-05-03T17:50:56.678Z,19.3
2023-05-03T17:56:55.901Z,19.3
2023-05-03T18:02:54.460Z,19.3
2023-05-03T18:08:52.991Z,19.3
2023-05-03T18:14:51.737Z,19.3
2023-05-03T18:20:49.398Z,19.3
2023-05-03T18:26:48.218Z,19.3
2023-05-03T18:32:46.476Z,19.3
2023-05-03T18:38:45.620Z,19.3
2023-05-03T18:44:45.562Z,19.3
2023-05-03T18:50:44.450Z,19.3
2023-05-03T18:56:42.838Z,19.3
2023-05-03T19:02:58.098Z,19.3
2023-05-03T19:08:56.356Z,19.3
2023-05-03T19:14:55.113Z,19.3
2023-05-03T19:20:53.222Z,19.3
2023-05-03T19:26:51.049Z,19.3
2023-05-03T19:32:49.315Z,19.3
2023-05-03T19:38:48.451Z,19.3
2023-05-03T19:44:30.395Z,19.3
2023-05-03T19:50:13.628Z,19.3
2023-05-03T19:56:10.964Z,19.3
2023-05-03T20:01:53.490Z,19.3
2023-05-03T20:07:35.688Z,19.3
2023-05-03T20:13:18.178Z,19.3
2023-05-03T20:19:00.568Z,19.3
2023-05-03T20:24:42.884Z,19.3
2023-05-03T20:30:25.427Z,19.3
2023-05-03T20:36:07.348Z,19.3
2023-05-03T20:41:48.520Z,19.3
2023-05-03T20:47:30.817Z,19.3
2023-05-03T20:53:13.676Z,19.3
2023-05-03T20:58:54.928Z,19.3
2023-05-03T21:04:24.061Z,19.3
2023-05-03T21:10:07.813Z,19.3
2023-05-03T21:15:50.898Z,19.3
2023-05-03T21:21:50.461Z,19.3
2023-05-03T21:27:35.234Z,19.3
2023-05-03T21:33:32.776Z,19.3
2023-05-03T21:39:31.052Z,19.3
2023-05-03T21:45:41.276Z,19.3
2023-05-03T21:51:38.636Z,19.3
2023-05-03T21:57:35.655Z,19.3
2023-05-03T22:03:32.402Z,19.3
2023-05-03T22:09:27.849Z,19.3
2023-05-03T22:15:58.961Z,19.3
2023-05-03T22:21:53.757Z,19.3
2023-05-03T22:27:46.773Z,19.3
2023-05-03T22:33:41.537Z,19.3
2023-05-03T22:39:35.636Z,19.3
2023-05-03T22:45:30.365Z,19.3
2023-05-03T22:51:09.224Z,19.3
2023-05-03T22:57:01.563Z,19.3
2023-05-03T23:02:54.506Z,19.3
2023-05-03T23:08:46.882Z,19.3
2023-05-03T23:14:38.189Z,19.3
2023-05-03T23:20:31.852Z,19.3
2023-05-03T23:26:24.176Z,19.3
2023-05-03T23:32:27.081Z,19.3
2023-05-03T23:38:20.715Z,19.3
2023-05-03T23:44:12.741Z,19.3
2023-05-03T23:50:22.932Z,19.3
2023-05-03T23:56:14.493Z,19.3
